weather.gov     
National Weather Service

Terminal Aerodrome Forecast
NWS Homepage
This page is being discontinued on March 12, 2014.
The same data is available at this site. Please update your bookmarks.
Thank you, and we apologize for the inconvenience.
Please send an email to SR-SRH.Webmaster@noaa.gov with any concerns.


Current Version
Previous Version:    01  02  03  04  05  06  07  08  09  10  11  12  13  14  15  16  17  18  19  20  21  22  23  24  25  26  27  
[Printable]
128
FTAK31 PAJN 241700
TAFAWG
TAF
PAWG 241726Z 2418/2518 33003KT P6SM FEW015 SCT030 BKN045
     FM242000 34005KT P6SM VCSH FEW030 OVC050
     FM250200 VRB05KT P6SM -SHRA FEW020 OVC035
     FM250800 12006KT 6SM -SHRA BR SCT020 OVC030
     FM251400 11010KT 6SM -RA BR SCT020 OVC030
      AMD LTD TO CLD VIS AND WIND 2506/2515=


U.S. Dept. of Commerce
NOAA National Weather Service
1325 East West Highway
Silver Spring, MD 20910
E-mail: w-nws.webmaster@noaa.gov
Page last modified: May 16, 2007
NATIONAL WEATHER SERVICE: for Safety, for Work, for Fun - FOR LIFE